Time;durP1;ratioP1;P1;durP2;ratioP2;P2;SDS_P1;SDS_P2;PMS_P1;PMS_P2;Temp;Humidity;BMP_temperature;BMP_pressure;BME280_temperature;BME280_humidity;BME280_pressure;Samples;Min_cycle;Max_cycle;Signal;HPM_P1;HPM_P2
2023/06/08 00:00:07;;;;;;;2.85;2.00;;;;;;;16.34;74.51;99802.69;5090964;28;20024;-84
2023/06/08 00:02:33;;;;;;;2.08;1.15;;;;;;;16.06;74.53;99750.47;5090977;28;20043;-84
2023/06/08 00:05:02;;;;;;;1.60;1.20;;;;;;;16.23;74.53;99781.78;5091409;28;20032;-81
2023/06/08 00:07:29;;;;;;;1.88;1.65;;;;;;;16.21;74.63;99782.78;5091042;28;20050;-81
2023/06/08 00:09:54;;;;;;;2.20;1.48;;;;;;;16.32;75.25;99814.34;5072079;28;20413;-82
2023/06/08 00:12:20;;;;;;;2.53;1.63;;;;;;;16.05;75.01;99755.84;5098125;28;20035;-82
2023/06/08 00:14:46;;;;;;;1.70;1.30;;;;;;;16.37;75.36;99809.69;5090848;28;20493;-82
2023/06/08 00:17:12;;;;;;;2.63;1.52;;;;;;;16.11;74.90;99776.91;5091476;28;20149;-82
2023/06/08 00:19:37;;;;;;;4.70;2.60;;;;;;;16.17;75.09;99773.16;5091606;28;20036;-82
2023/06/08 00:22:05;;;;;;;2.28;1.20;;;;;;;15.82;75.51;99738.94;5090419;28;20024;-81
2023/06/08 00:24:37;;;;;;;2.25;2.03;;;;;;;16.14;75.90;99797.22;5072018;28;20434;-81
2023/06/08 00:27:03;;;;;;;2.67;1.77;;;;;;;15.93;75.45;99762.50;5091176;28;20462;-81
2023/06/08 00:29:29;;;;;;;1.48;1.05;;;;;;;15.92;75.65;99771.41;5098368;28;20504;-82
2023/06/08 00:31:54;;;;;;;2.00;1.48;;;;;;;15.88;76.16;99773.31;5110776;28;20122;-82
2023/06/08 00:34:20;;;;;;;2.08;1.38;;;;;;;15.96;76.53;99782.78;5110005;28;20096;-82
2023/06/08 00:36:45;;;;;;;2.60;1.35;;;;;;;15.84;77.10;99766.34;5109686;28;20027;-81
2023/06/08 00:39:14;;;;;;;2.28;2.08;;;;;;;15.93;77.00;99787.31;5108550;28;20063;-81
2023/06/08 00:41:40;;;;;;;2.45;1.75;;;;;;;15.96;76.28;99773.03;5110239;28;20331;-81
2023/06/08 00:44:07;;;;;;;1.13;0.93;;;;;;;15.87;76.02;99773.38;5091542;28;20031;-82
2023/06/08 00:46:33;;;;;;;1.38;1.20;;;;;;;15.93;76.27;99802.41;5101007;28;20104;-81
2023/06/08 00:49:00;;;;;;;1.48;0.98;;;;;;;15.98;76.32;99794.25;5089689;28;20425;-81
2023/06/08 00:51:28;;;;;;;1.95;0.98;;;;;;;15.80;76.57;99764.75;5070837;28;20036;-82
2023/06/08 00:53:56;;;;;;;1.85;1.23;;;;;;;15.97;76.23;99787.19;5092230;28;20128;-81
2023/06/08 00:56:26;;;;;;;0.77;0.60;;;;;;;16.20;74.62;99767.72;5110388;28;20032;-81
2023/06/08 00:58:55;;;;;;;3.20;1.60;;;;;;;16.34;74.14;99776.06;5110576;28;20035;-82
2023/06/08 01:01:24;;;;;;;2.03;1.50;;;;;;;16.21;74.73;99782.78;5108293;28;20088;-82
2023/06/08 01:03:55;;;;;;;2.08;1.88;;;;;;;16.04;74.70;99768.28;5092241;28;20032;-82
2023/06/08 01:06:20;;;;;;;1.67;1.42;;;;;;;15.83;75.58;99767.25;5091840;28;20031;-82
2023/06/08 01:09:29;;;;;;;2.08;1.85;;;;;;;15.86;75.89;99784.91;5110046;28;20088;-81
2023/06/08 01:12:10;;;;;;;4.45;1.42;;;;;;;15.71;76.15;99763.22;5007026;28;20054;-81
2023/06/08 01:15:06;;;;;;;1.75;1.52;;;;;;;15.88;75.79;99783.06;5016431;28;20052;-81
2023/06/08 01:17:40;;;;;;;1.40;0.93;;;;;;;15.75;75.65;99779.94;5009922;28;20038;-81
2023/06/08 01:20:29;;;;;;;2.67;1.27;;;;;;;15.92;75.57;99784.69;5007528;28;20034;-81
2023/06/08 01:23:25;;;;;;;1.75;1.63;;;;;;;15.95;75.40;99783.72;5007653;28;20049;-81
2023/06/08 01:25:55;;;;;;;2.20;2.10;;;;;;;15.65;75.95;99742.19;4990713;28;20603;-81
2023/06/08 01:28:22;;;;;;;1.95;1.27;;;;;;;15.80;75.57;99743.47;5009824;28;20037;-82
2023/06/08 01:30:48;;;;;;;2.92;2.63;;;;;;;15.76;75.51;99750.63;5027155;28;20067;-81
2023/06/08 01:33:23;;;;;;;2.60;2.33;;;;;;;15.91;74.64;99765.22;5018100;28;20629;-81
2023/06/08 01:36:03;;;;;;;5.68;1.38;;;;;;;15.97;74.89;99784.53;5008174;28;20073;-82
2023/06/08 01:38:59;;;;;;;2.13;1.80;;;;;;;15.98;75.01;99787.13;5008391;28;20052;-80
2023/06/08 01:41:31;;;;;;;3.00;1.25;;;;;;;15.79;75.21;99763.00;5007461;28;20040;-81
2023/06/08 01:43:58;;;;;;;1.30;1.23;;;;;;;15.98;74.77;99799.59;4991284;28;20496;-82
2023/06/08 01:46:27;;;;;;;3.63;2.72;;;;;;;15.99;74.76;99801.31;5008449;28;20503;-82
2023/06/08 01:48:58;;;;;;;1.83;1.58;;;;;;;15.86;74.21;99769.81;5051842;28;20048;-82
2023/06/08 01:51:25;;;;;;;2.17;1.55;;;;;;;15.80;74.34;99777.16;5113293;28;20027;-82
2023/06/08 01:54:00;;;;;;;2.40;1.40;;;;;;;15.72;75.07;99767.63;5094526;28;20066;-82
2023/06/08 01:56:30;;;;;;;4.60;3.08;;;;;;;15.82;75.07;99786.81;5113755;28;20031;-82
2023/06/08 01:58:56;;;;;;;1.65;1.33;;;;;;;15.71;75.24;99775.69;5110447;28;20139;-81
2023/06/08 02:01:21;;;;;;;1.33;1.00;;;;;;;15.74;75.30;99773.75;5113578;28;20114;-82
2023/06/08 02:03:47;;;;;;;2.85;1.40;;;;;;;15.85;74.81;99789.38;5113398;28;20525;-82
2023/06/08 02:06:12;;;;;;;2.05;1.08;;;;;;;15.79;74.99;99778.09;5113199;28;20034;-82
2023/06/08 02:08:38;;;;;;;3.42;1.88;;;;;;;15.73;75.08;99760.53;5113480;28;20035;-82
2023/06/08 02:11:05;;;;;;;10.88;3.15;;;;;;;15.89;74.65;99796.31;5093363;28;20028;-81
2023/06/08 02:13:34;;;;;;;2.65;1.65;;;;;;;15.83;74.86;99780.56;5112661;28;20399;-82
2023/06/08 02:16:00;;;;;;;1.33;1.20;;;;;;;15.78;74.87;99779.00;5083104;28;20043;-82
2023/06/08 02:18:26;;;;;;;1.88;1.15;;;;;;;15.69;75.14;99773.06;5073758;28;20032;-82
2023/06/08 02:20:52;;;;;;;3.08;1.33;;;;;;;15.88;74.98;99791.94;5094293;28;20089;-83
2023/06/08 02:23:18;;;;;;;1.60;1.33;;;;;;;15.77;75.66;99783.47;5109451;28;20028;-81
2023/06/08 02:25:49;;;;;;;2.22;1.92;;;;;;;15.43;75.55;99765.09;5113264;28;20024;-82
2023/06/08 02:28:14;;;;;;;2.70;2.22;;;;;;;15.51;76.14;99781.69;5112754;28;20119;-82
2023/06/08 02:30:40;;;;;;;2.83;1.83;;;;;;;15.62;75.39;99797.25;5112603;28;20106;-82
2023/06/08 02:33:06;;;;;;;2.33;1.13;;;;;;;15.33;75.83;99753.91;5110811;28;20039;-82
2023/06/08 02:35:31;;;;;;;3.92;1.92;;;;;;;15.26;76.41;99758.56;5113090;28;20035;-81
2023/06/08 02:37:57;;;;;;;13.82;1.90;;;;;;;15.30;76.23;99751.34;5094759;28;20028;-81
2023/06/08 02:40:23;;;;;;;2.80;1.27;;;;;;;15.24;76.12;99741.78;5112279;28;20479;-82
2023/06/08 02:42:48;;;;;;;4.78;1.85;;;;;;;15.40;76.48;99774.91;5110591;28;20036;-81
2023/06/08 02:45:13;;;;;;;2.03;1.83;;;;;;;15.29;77.29;99768.22;5112587;28;20030;-81
2023/06/08 02:47:39;;;;;;;1.48;1.05;;;;;;;15.22;76.98;99747.16;5112470;28;20492;-81
2023/06/08 02:50:05;;;;;;;2.15;1.65;;;;;;;15.25;76.30;99766.59;5093795;28;20028;-81
2023/06/08 02:52:30;;;;;;;3.08;2.35;;;;;;;15.07;77.40;99774.22;5091834;28;20032;-81
2023/06/08 02:54:56;;;;;;;1.13;1.00;;;;;;;15.00;77.01;99754.13;5073982;28;20047;-81
2023/06/08 02:57:21;;;;;;;1.70;1.42;;;;;;;15.01;76.75;99774.44;5090850;28;20063;-83
2023/06/08 02:59:47;;;;;;;13.52;1.90;;;;;;;15.07;76.40;99763.59;5091712;28;20036;-81
2023/06/08 03:02:12;;;;;;;4.85;2.65;;;;;;;15.16;77.09;99794.31;5072889;28;20425;-81
2023/06/08 03:04:38;;;;;;;3.17;1.55;;;;;;;15.07;77.53;99770.72;5093173;28;20031;-82
2023/06/08 03:07:04;;;;;;;2.35;2.08;;;;;;;15.02;77.33;99734.53;5073475;28;20427;-83
2023/06/08 03:09:29;;;;;;;1.92;1.67;;;;;;;15.36;77.13;99786.56;5092207;28;20437;-83
2023/06/08 03:11:56;;;;;;;1.85;1.38;;;;;;;15.31;77.64;99755.78;5091768;28;20032;-84
2023/06/08 03:14:28;;;;;;;2.72;1.80;;;;;;;15.62;77.57;99797.25;5073533;28;20039;-83
2023/06/08 03:16:57;;;;;;;2.80;1.30;;;;;;;15.54;77.33;99782.44;5087270;28;20028;-82
2023/06/08 03:19:25;;;;;;;2.13;1.77;;;;;;;15.56;77.32;99769.94;5072520;28;20036;-81
2023/06/08 03:21:51;;;;;;;3.50;1.92;;;;;;;15.67;77.22;99801.47;5092984;28;20042;-81
2023/06/08 03:24:18;;;;;;;2.95;1.73;;;;;;;15.64;77.21;99788.28;5110078;28;20031;-85
2023/06/08 03:26:43;;;;;;;2.90;1.70;;;;;;;15.82;77.17;99793.91;5081028;28;20036;-82
2023/06/08 03:29:09;;;;;;;1.25;1.15;;;;;;;15.76;76.63;99771.06;5073236;28;20032;-82
2023/06/08 03:31:37;;;;;;;3.13;2.28;;;;;;;15.82;76.56;99768.22;5090657;28;20039;-83
2023/06/08 03:34:04;;;;;;;2.65;1.92;;;;;;;15.85;76.58;99772.53;5090762;28;20031;-83
2023/06/08 03:36:33;;;;;;;2.00;1.38;;;;;;;16.14;76.54;99798.09;5095923;28;20661;-82
2023/06/08 03:39:02;;;;;;;10.40;1.63;;;;;;;16.20;76.38;99794.34;5089910;28;20074;-82
2023/06/08 03:41:28;;;;;;;2.92;1.70;;;;;;;16.22;76.32;99804.03;5110702;28;20122;-82
2023/06/08 03:43:55;;;;;;;4.95;2.47;;;;;;;16.17;75.92;99786.47;5110870;28;20106;-82
2023/06/08 03:46:21;;;;;;;2.83;1.98;;;;;;;16.21;75.77;99786.31;5092756;28;20485;-83
2023/06/08 03:48:47;;;;;;;2.72;2.13;;;;;;;16.21;75.91;99775.66;5102706;28;20102;-82
2023/06/08 03:51:13;;;;;;;3.47;2.05;;;;;;;16.34;75.56;99780.53;5104018;28;20119;-84
2023/06/08 03:53:39;;;;;;;4.70;2.17;;;;;;;16.33;74.66;99769.03;5072529;28;20028;-83
2023/06/08 03:56:05;;;;;;;5.10;2.08;;;;;;;16.40;74.25;99769.66;5090933;28;20039;-84
2023/06/08 03:58:32;;;;;;;2.28;1.67;;;;;;;16.71;74.01;99781.78;5091555;28;20061;-83
2023/06/08 04:00:58;;;;;;;12.90;2.33;;;;;;;16.74;73.58;99809.16;5093034;28;20032;-83
2023/06/08 04:03:25;;;;;;;2.33;1.83;;;;;;;16.56;73.11;99754.84;5111634;28;20027;-83
2023/06/08 04:05:53;;;;;;;2.70;2.15;;;;;;;16.91;71.96;99813.00;5099947;28;20506;-83
2023/06/08 04:08:19;;;;;;;2.05;1.17;;;;;;;16.94;71.32;99765.78;5129083;27;20079;-82
2023/06/08 04:10:45;;;;;;;2.65;1.83;;;;;;;16.97;71.05;99800.31;5111902;27;20030;-83
2023/06/08 04:13:10;;;;;;;2.13;1.85;;;;;;;16.98;71.67;99788.72;5123256;27;20039;-80
2023/06/08 04:15:36;;;;;;;3.05;1.90;;;;;;;17.24;70.85;99817.91;5105227;28;20028;-82
2023/06/08 04:18:05;;;;;;;2.90;1.60;;;;;;;16.92;71.80;99802.28;5109815;28;20020;-82
2023/06/08 04:20:32;;;;;;;2.83;2.00;;;;;;;16.85;72.67;99791.91;5099345;27;20047;-82
2023/06/08 04:22:58;;;;;;;2.22;2.00;;;;;;;16.74;73.12;99803.84;5098650;27;20068;-83
2023/06/08 04:25:25;;;;;;;1.50;1.33;;;;;;;16.90;73.25;99828.13;5106539;28;20055;-82
2023/06/08 04:27:52;;;;;;;4.72;2.20;;;;;;;17.12;73.09;99835.28;5090056;28;20034;-81
2023/06/08 04:30:17;;;;;;;6.22;3.28;;;;;;;17.22;73.07;99825.97;5100551;28;20073;-81
2023/06/08 04:32:43;;;;;;;3.47;2.50;;;;;;;17.18;72.33;99822.56;5084185;27;20070;-82
2023/06/08 04:35:08;;;;;;;24.67;4.13;;;;;;;17.23;72.57;99800.22;5079903;28;20521;-84
2023/06/08 04:37:35;;;;;;;2.00;1.75;;;;;;;17.40;72.43;99824.38;5090959;28;20024;-81
2023/06/08 04:40:01;;;;;;;2.85;2.17;;;;;;;17.44;72.79;99804.66;5095507;28;20078;-81
2023/06/08 04:42:27;;;;;;;1.20;1.10;;;;;;;17.38;72.69;99785.34;5089811;28;20058;-83
2023/06/08 04:44:53;;;;;;;2.95;2.03;;;;;;;17.39;71.96;99761.28;5088578;28;20742;-81
2023/06/08 04:47:19;;;;;;;13.48;2.78;;;;;;;17.79;71.67;99823.63;5096720;28;20221;-82
2023/06/08 04:49:44;;;;;;;4.28;2.42;;;;;;;17.63;71.89;99801.22;5091915;28;20038;-82
2023/06/08 04:52:13;;;;;;;3.05;1.90;;;;;;;17.78;71.90;99813.00;5098094;28;20035;-82
2023/06/08 04:54:39;;;;;;;3.63;2.10;;;;;;;17.95;71.29;99778.50;5088695;28;20038;-81
2023/06/08 04:57:08;;;;;;;5.30;3.05;;;;;;;18.22;70.88;99797.75;5096662;28;20114;-83
2023/06/08 04:59:35;;;;;;;2.80;2.08;;;;;;;18.60;70.01;99834.34;5098074;27;20020;-81
2023/06/08 05:02:01;;;;;;;4.18;2.45;;;;;;;18.51;69.73;99816.06;5092897;28;20042;-80
2023/06/08 05:04:26;;;;;;;3.10;2.75;;;;;;;18.46;69.81;99818.06;5091117;28;20024;-81
2023/06/08 05:06:52;;;;;;;2.03;1.83;;;;;;;18.80;69.56;99822.75;5095269;28;20035;-81
2023/06/08 05:09:17;;;;;;;5.40;2.45;;;;;;;18.35;69.37;99782.06;5092179;28;20024;-80
2023/06/08 05:11:43;;;;;;;4.25;2.38;;;;;;;18.51;70.20;99800.06;5073962;28;20068;-81
2023/06/08 05:14:10;;;;;;;3.60;2.03;;;;;;;18.79;69.54;99829.00;5091819;28;20130;-81
2023/06/08 05:16:37;;;;;;;2.55;2.35;;;;;;;18.86;69.86;99825.16;5097629;28;20027;-81
2023/06/08 05:19:11;;;;;;;4.05;1.98;;;;;;;19.09;68.78;99818.72;5094738;28;20030;-82
2023/06/08 05:21:39;;;;;;;9.43;2.42;;;;;;;19.47;67.91;99842.69;5097159;28;20456;-80
2023/06/08 05:24:06;;;;;;;4.07;2.33;;;;;;;19.82;65.97;99837.41;5094197;28;20027;-81
2023/06/08 05:26:31;;;;;;;6.25;2.42;;;;;;;19.95;64.85;99802.00;5097486;27;20504;-80
2023/06/08 05:28:57;;;;;;;2.05;1.40;;;;;;;20.42;63.64;99828.09;5078336;28;20044;-79
2023/06/08 05:31:22;;;;;;;2.13;1.30;;;;;;;20.81;62.39;99839.44;5103080;28;20024;-79
2023/06/08 05:33:48;;;;;;;3.30;2.35;;;;;;;21.10;61.12;99835.97;5097509;28;20040;-79
2023/06/08 05:36:13;;;;;;;3.15;1.70;;;;;;;21.02;61.18;99824.81;5097331;28;20027;-79
2023/06/08 05:38:39;;;;;;;2.95;1.73;;;;;;;21.00;60.44;99829.38;5096780;28;20366;-80
2023/06/08 05:41:06;;;;;;;25.05;2.55;;;;;;;20.90;60.57;99837.09;5098977;28;20385;-79
2023/06/08 05:43:32;;;;;;;2.03;1.30;;;;;;;21.14;60.18;99836.66;5102719;28;20024;-80
2023/06/08 05:45:57;;;;;;;2.10;1.42;;;;;;;21.45;60.05;99848.31;5097752;28;20023;-80
2023/06/08 05:48:23;;;;;;;6.15;2.90;;;;;;;21.17;60.13;99804.28;5100174;28;20161;-79
2023/06/08 05:50:49;;;;;;;2.72;1.70;;;;;;;21.51;58.86;99834.56;5097821;28;20073;-79
2023/06/08 05:53:14;;;;;;;4.40;2.50;;;;;;;21.34;58.89;99837.34;5095618;28;20023;-80
2023/06/08 05:55:41;;;;;;;5.05;2.15;;;;;;;21.44;60.04;99838.53;5095143;28;20123;-80
2023/06/08 05:58:08;;;;;;;2.97;1.42;;;;;;;21.57;58.74;99809.22;5098511;28;20432;-79
2023/06/08 06:00:33;;;;;;;5.80;2.28;;;;;;;21.50;58.02;99823.94;5095233;28;20031;-81
2023/06/08 06:02:59;;;;;;;2.33;1.73;;;;;;;21.80;57.99;99842.75;5097798;28;20028;-80
2023/06/08 06:05:24;;;;;;;3.38;1.60;;;;;;;21.74;57.62;99790.28;5105448;28;20451;-81
2023/06/08 06:07:50;;;;;;;5.60;1.90;;;;;;;22.05;57.34;99830.53;5099093;28;20020;-81
2023/06/08 06:10:15;;;;;;;3.22;1.67;;;;;;;22.22;58.04;99842.94;5099366;28;20045;-80
2023/06/08 06:12:41;;;;;;;1.95;1.50;;;;;;;22.62;57.48;99822.53;5095490;28;20122;-81
2023/06/08 06:15:07;;;;;;;10.88;3.17;;;;;;;22.77;55.09;99818.03;5098888;28;20088;-82
2023/06/08 06:17:32;;;;;;;3.28;2.03;;;;;;;22.97;54.96;99800.59;5097066;28;20036;-80
2023/06/08 06:19:58;;;;;;;5.90;2.13;;;;;;;23.33;54.11;99827.94;5095887;28;20035;-81
2023/06/08 06:22:23;;;;;;;3.13;2.35;;;;;;;22.95;54.01;99815.09;5098682;28;20024;-81
2023/06/08 06:24:49;;;;;;;3.40;1.88;;;;;;;23.00;54.49;99829.13;5101880;28;20016;-81
2023/06/08 06:27:15;;;;;;;2.42;2.20;;;;;;;22.91;54.52;99833.28;5095192;28;20082;-81
2023/06/08 06:29:40;;;;;;;1.13;1.08;;;;;;;22.31;56.74;99799.41;5100893;28;20159;-82
2023/06/08 06:32:06;;;;;;;2.30;1.75;;;;;;;23.09;54.42;99803.47;5076635;28;20093;-81
2023/06/08 06:34:32;;;;;;;2.70;1.73;;;;;;;23.12;52.48;99808.66;5098976;28;20338;-80
2023/06/08 06:36:57;;;;;;;3.13;2.28;;;;;;;23.56;53.88;99815.63;5101023;28;20039;-80
2023/06/08 06:39:23;;;;;;;6.13;3.15;;;;;;;23.17;51.19;99796.66;5097729;28;20546;-81
2023/06/08 06:41:49;;;;;;;2.95;1.40;;;;;;;22.89;52.22;99790.34;5096443;28;20031;-82
2023/06/08 06:44:14;;;;;;;2.85;1.83;;;;;;;23.63;49.04;99759.53;5088530;28;20156;-83
2023/06/08 06:46:40;;;;;;;2.92;2.42;;;;;;;24.13;48.48;99788.38;5094085;28;20381;-81
2023/06/08 06:49:06;;;;;;;2.80;1.70;;;;;;;24.07;47.00;99761.88;5097007;28;20103;-82
2023/06/08 06:51:31;;;;;;;2.03;1.38;;;;;;;24.52;46.40;99788.38;5096041;28;20114;-82
2023/06/08 06:53:57;;;;;;;4.20;1.90;;;;;;;25.10;45.90;99785.09;5099374;28;20020;-82
2023/06/08 06:56:22;;;;;;;4.35;2.10;;;;;;;25.28;45.63;99785.59;5095560;28;20065;-84
2023/06/08 06:58:48;;;;;;;1.83;1.20;;;;;;;24.70;48.78;99737.69;5096870;27;20092;-83
2023/06/08 07:01:17;;;;;;;10.52;3.30;;;;;;;25.04;47.47;99767.56;5093451;28;20394;-82
2023/06/08 07:03:44;;;;;;;1.08;0.90;;;;;;;25.45;46.04;99787.91;5096813;28;20039;-83
2023/06/08 07:06:10;;;;;;;2.20;1.42;;;;;;;25.57;45.70;99747.44;5093393;28;20039;-84
2023/06/08 07:08:36;;;;;;;1.58;1.38;;;;;;;25.41;45.65;99789.13;5094618;27;20040;-85
2023/06/08 07:11:02;;;;;;;2.13;1.20;;;;;;;25.35;44.39;99757.19;5092590;28;20401;-84
2023/06/08 07:13:27;;;;;;;2.13;1.45;;;;;;;25.13;45.64;99764.16;5095719;28;20019;-84
2023/06/08 07:15:54;;;;;;;6.90;1.30;;;;;;;25.64;44.86;99744.16;5089527;28;20032;-84
2023/06/08 07:18:20;;;;;;;1.40;1.30;;;;;;;26.23;42.49;99769.38;5092619;28;20028;-85
2023/06/08 07:20:45;;;;;;;2.38;1.30;;;;;;;26.72;41.13;99770.81;5095753;28;20050;-84
2023/06/08 07:23:11;;;;;;;1.85;1.15;;;;;;;26.22;42.14;99732.50;5094195;28;20497;-84
2023/06/08 07:25:39;;;;;;;2.53;1.40;;;;;;;26.40;43.69;99759.88;5096689;28;20160;-83
2023/06/08 07:28:05;;;;;;;2.90;1.17;;;;;;;26.87;41.78;99738.97;5079996;28;20024;-86
2023/06/08 07:30:34;;;;;;;2.13;1.05;;;;;;;27.37;41.37;99743.88;5099542;27;20682;-83
2023/06/08 07:33:06;;;;;;;6.25;3.90;;;;;;;27.71;37.21;99732.84;5095974;27;20070;-83
2023/06/08 07:35:31;;;;;;;1.73;1.10;;;;;;;27.52;39.76;99745.28;5079863;28;20038;-84
2023/06/08 07:37:57;;;;;;;1.60;1.30;;;;;;;27.19;38.39;99726.44;5095061;27;20382;-83
2023/06/08 07:40:22;;;;;;;2.72;1.40;;;;;;;27.05;40.82;99746.53;5096380;27;20084;-82
2023/06/08 07:42:48;;;;;;;2.08;1.30;;;;;;;26.72;40.53;99765.41;5093539;27;20020;-85
2023/06/08 07:45:14;;;;;;;1.90;1.25;;;;;;;26.84;39.47;99750.03;5095190;28;20052;-85
2023/06/08 07:47:41;;;;;;;1.13;0.85;;;;;;;26.48;41.28;99751.16;5093840;28;20500;-83
2023/06/08 07:50:07;;;;;;;3.25;1.63;;;;;;;27.14;40.64;99756.59;5068938;28;20047;-83
2023/06/08 07:52:33;;;;;;;3.40;1.63;;;;;;;26.57;40.73;99734.16;5092895;28;20028;-83
2023/06/08 07:54:59;;;;;;;2.45;1.23;;;;;;;26.53;41.23;99724.59;5087815;28;20024;-85
2023/06/08 07:57:24;;;;;;;9.23;1.55;;;;;;;26.53;40.40;99713.78;5085199;28;20478;-83
2023/06/08 07:59:50;;;;;;;3.53;1.25;;;;;;;27.04;42.40;99734.00;5092640;28;20024;-86
2023/06/08 08:02:16;;;;;;;2.55;1.48;;;;;;;26.89;42.50;99720.75;5092010;28;20486;-84
2023/06/08 08:04:41;;;;;;;2.22;1.48;;;;;;;27.59;38.88;99752.88;5093339;28;20024;-84
2023/06/08 08:07:07;;;;;;;3.13;1.77;;;;;;;27.76;37.80;99751.44;5094524;28;20028;-83
2023/06/08 08:09:32;;;;;;;2.20;1.38;;;;;;;27.38;38.68;99744.75;5096939;28;20032;-84
2023/06/08 08:11:58;;;;;;;1.95;1.20;;;;;;;27.10;38.48;99752.44;5094101;28;20033;-82
2023/06/08 08:14:23;;;;;;;2.03;1.27;;;;;;;26.74;40.60;99732.81;5090321;28;20413;-83
2023/06/08 08:16:49;;;;;;;1.30;0.93;;;;;;;26.93;37.50;99735.75;5076439;28;20383;-83
2023/06/08 08:19:16;;;;;;;1.20;0.93;;;;;;;27.05;37.16;99706.81;5090616;28;20160;-83
2023/06/08 08:21:41;;;;;;;1.67;1.00;;;;;;;26.97;37.51;99731.81;5096322;28;20076;-82
2023/06/08 08:24:07;;;;;;;1.90;1.10;;;;;;;27.03;36.18;99724.16;5092991;28;20050;-82
2023/06/08 08:26:32;;;;;;;5.43;1.15;;;;;;;26.58;38.12;99720.53;5088092;28;20115;-86
2023/06/08 08:28:58;;;;;;;3.13;1.15;;;;;;;26.58;37.98;99733.19;5087670;28;20093;-81
2023/06/08 08:31:24;;;;;;;2.35;1.10;;;;;;;26.35;39.00;99710.72;5092240;28;20026;-81
2023/06/08 08:33:49;;;;;;;1.73;1.52;;;;;;;26.61;38.13;99728.38;5086187;28;20236;-81
2023/06/08 08:36:16;;;;;;;3.47;1.55;;;;;;;26.73;37.33;99698.66;5094110;28;20203;-81
2023/06/08 08:38:42;;;;;;;1.33;0.55;;;;;;;27.31;37.46;99717.28;5092918;28;20128;-81
2023/06/08 08:41:11;;;;;;;1.17;0.95;;;;;;;27.03;37.40;99716.88;5095475;28;20031;-83
2023/06/08 08:44:01;;;;;;;1.25;0.80;;;;;;;26.97;38.12;99737.22;5094909;28;20127;-83
2023/06/08 08:46:30;;;;;;;2.60;1.02;;;;;;;27.61;38.75;99716.53;5097130;28;21200;-84
2023/06/08 08:49:00;;;;;;;1.67;1.00;;;;;;;27.33;37.98;99702.66;5092164;28;20027;-87
2023/06/08 08:51:28;;;;;;;3.42;1.20;;;;;;;27.33;36.73;99707.22;5089971;28;20032;-86
2023/06/08 08:53:55;;;;;;;4.95;1.52;;;;;;;27.71;37.12;99700.34;5092735;28;20145;-84
2023/06/08 08:56:22;;;;;;;2.60;0.90;;;;;;;27.41;38.21;99668.66;5092788;27;20111;-85
2023/06/08 08:58:53;;;;;;;1.70;1.35;;;;;;;27.75;38.47;99684.69;5091910;28;20027;-85
2023/06/08 09:01:19;;;;;;;1.63;0.90;;;;;;;27.54;38.20;99703.66;5077184;28;20441;-85
2023/06/08 09:03:48;;;;;;;3.05;1.33;;;;;;;27.37;38.02;99684.28;5096147;28;20024;-89
2023/06/08 09:06:37;;;;;;;1.92;1.00;;;;;;;28.03;39.76;99708.41;5082132;28;20035;-90
2023/06/08 09:09:13;;;;;;;1.77;0.75;;;;;;;27.92;40.04;99694.91;5096173;28;20069;-88
2023/06/08 09:12:05;;;;;;;0.95;0.82;;;;;;;27.84;39.10;99706.41;5091804;28;20028;-85
2023/06/08 09:14:31;;;;;;;7.60;1.40;;;;;;;27.57;39.33;99673.59;5091387;28;20039;-84
2023/06/08 09:16:58;;;;;;;3.17;1.00;;;;;;;27.62;38.63;99682.16;5094170;28;20137;-83
2023/06/08 09:19:24;;;;;;;2.75;1.55;;;;;;;28.02;38.71;99665.16;5093926;28;20028;-84
2023/06/08 09:21:50;;;;;;;6.47;1.98;;;;;;;28.18;37.11;99670.09;5081661;28;20062;-83
2023/06/08 09:24:21;;;;;;;1.92;1.20;;;;;;;28.28;38.32;99643.84;5093104;28;20119;-83
2023/06/08 09:26:56;;;;;;;2.00;0.88;;;;;;;29.09;38.56;99675.44;5092139;28;20024;-85
2023/06/08 09:29:36;;;;;;;1.63;0.90;;;;;;;28.86;35.63;99658.59;5091069;28;20035;-85
2023/06/08 09:32:02;;;;;;;2.17;1.23;;;;;;;28.54;35.18;99619.78;5089350;28;20036;-85
2023/06/08 09:34:33;;;;;;;1.33;0.75;;;;;;;28.72;35.52;99657.13;5102726;28;20455;-82
2023/06/08 09:37:10;;;;;;;1.15;0.85;;;;;;;29.04;35.66;99662.31;5109220;28;20028;-82
2023/06/08 09:39:39;;;;;;;1.33;1.15;;;;;;;28.47;35.47;99655.75;5101555;28;20055;-82
2023/06/08 09:42:06;;;;;;;3.95;1.48;;;;;;;28.05;36.95;99670.31;5106290;28;20028;-83
2023/06/08 09:44:32;;;;;;;2.65;0.77;;;;;;;28.57;36.80;99653.94;5100832;28;20032;-82
2023/06/08 09:46:57;;;;;;;1.63;1.00;;;;;;;28.71;35.35;99645.41;5088345;28;20106;-81
2023/06/08 09:49:23;;;;;;;1.80;0.88;;;;;;;28.69;35.04;99616.72;5095103;28;20055;-82
2023/06/08 09:51:52;;;;;;;1.23;1.08;;;;;;;28.79;35.13;99657.41;5104838;28;20039;-88
2023/06/08 09:54:21;;;;;;;1.33;1.15;;;;;;;28.91;33.63;99640.84;5092810;28;20039;-84
2023/06/08 09:56:55;;;;;;;3.75;1.10;;;;;;;29.19;33.63;99621.13;5076172;28;20059;-85
2023/06/08 09:59:27;;;;;;;6.65;2.45;;;;;;;28.39;34.04;99607.63;5096687;28;20023;-85
2023/06/08 10:02:03;;;;;;;2.92;1.70;;;;;;;28.33;34.65;99630.75;5074703;28;20398;-83
2023/06/08 10:04:37;;;;;;;3.60;1.60;;;;;;;28.18;34.08;99627.56;5072477;28;20098;-86
2023/06/08 10:07:07;;;;;;;2.85;1.45;;;;;;;28.56;35.83;99660.34;5099066;28;20030;-83
2023/06/08 10:09:37;;;;;;;1.60;0.90;;;;;;;28.51;36.34;99624.66;5107592;28;20020;-83
2023/06/08 10:12:04;;;;;;;2.28;1.40;;;;;;;28.29;35.85;99606.78;5097845;28;20793;-83
2023/06/08 10:14:33;;;;;;;1.95;1.40;;;;;;;28.53;34.61;99617.22;5096378;28;20032;-84
2023/06/08 10:16:59;;;;;;;4.97;1.83;;;;;;;28.47;35.55;99626.78;5097984;28;20039;-85
2023/06/08 10:19:26;;;;;;;5.70;1.45;;;;;;;28.26;34.83;99620.59;5098262;27;20035;-82
2023/06/08 10:21:52;;;;;;;1.30;0.80;;;;;;;28.42;35.91;99620.91;5096299;28;20031;-84
2023/06/08 10:24:20;;;;;;;2.17;0.90;;;;;;;28.34;34.74;99605.34;5091401;28;20020;-84
2023/06/08 10:26:48;;;;;;;3.65;0.80;;;;;;;28.02;35.47;99611.81;5092071;28;20058;-82
2023/06/08 10:29:14;;;;;;;3.63;1.17;;;;;;;28.07;35.56;99608.69;5091773;28;20031;-84
2023/06/08 10:31:41;;;;;;;2.15;1.30;;;;;;;28.44;34.88;99620.75;5091887;28;20028;-83
2023/06/08 10:34:19;;;;;;;2.05;1.00;;;;;;;28.44;34.35;99577.38;5091794;28;20028;-82
2023/06/08 10:36:45;;;;;;;1.40;0.85;;;;;;;28.58;34.39;99585.13;5092151;28;20085;-82
2023/06/08 10:39:16;;;;;;;1.67;1.23;;;;;;;28.53;35.67;99585.53;5091404;28;20123;-82
2023/06/08 10:41:53;;;;;;;1.65;1.02;;;;;;;29.23;36.96;99596.28;5092199;28;20354;-82
2023/06/08 10:44:32;;;;;;;1.17;1.00;;;;;;;29.21;34.51;99605.56;5091128;28;20040;-83
2023/06/08 10:47:06;;;;;;;6.03;1.85;;;;;;;28.79;34.55;99589.56;5091834;28;20091;-83
2023/06/08 10:49:37;;;;;;;2.72;1.10;;;;;;;28.57;35.15;99526.41;5091682;28;20031;-86
2023/06/08 10:52:06;;;;;;;1.50;0.93;;;;;;;28.17;35.03;99528.22;5107891;27;20158;-89
2023/06/08 10:54:52;;;;;;;3.05;1.10;;;;;;;28.20;35.68;99575.91;5120885;27;20023;-85
2023/06/08 10:57:52;;;;;;;3.72;0.70;;;;;;;28.11;35.46;99508.97;5111754;28;20116;-84
2023/06/08 11:00:30;;;;;;;1.08;0.82;;;;;;;29.43;34.98;99585.38;5111780;28;20115;-83
2023/06/08 11:03:06;;;;;;;0.80;0.77;;;;;;;29.13;36.20;99534.81;5104135;27;20025;-84
2023/06/08 11:05:33;;;;;;;3.30;1.50;;;;;;;29.08;33.73;99560.53;5112065;28;20373;-83
2023/06/08 11:08:00;;;;;;;1.70;1.15;;;;;;;29.41;33.38;99543.91;5102216;27;20054;-84
2023/06/08 11:10:26;;;;;;;2.38;0.98;;;;;;;28.98;32.78;99515.41;5092120;28;20031;-84
2023/06/08 11:12:51;;;;;;;2.40;1.10;;;;;;;28.93;33.48;99522.16;5095803;28;20049;-84
2023/06/08 11:15:18;;;;;;;2.20;1.73;;;;;;;28.56;32.46;99527.41;5103544;28;20463;-85
2023/06/08 11:17:52;;;;;;;2.90;0.82;;;;;;;28.91;32.75;99512.44;5098855;28;20046;-87
2023/06/08 11:20:23;;;;;;;1.55;1.15;;;;;;;29.13;32.96;99538.38;5090613;28;20024;-87
2023/06/08 11:22:49;;;;;;;4.75;1.20;;;;;;;28.19;34.48;99526.25;5090332;28;20067;-87
2023/06/08 11:25:19;;;;;;;1.55;1.05;;;;;;;28.25;33.80;99516.69;5094409;27;20059;-84
2023/06/08 11:27:46;;;;;;;1.58;1.02;;;;;;;29.13;33.49;99537.53;5107008;27;20123;-83
2023/06/08 11:30:19;;;;;;;2.80;0.88;;;;;;;29.13;32.14;99529.38;5103597;28;20110;-83
2023/06/08 11:32:50;;;;;;;1.60;0.82;;;;;;;29.14;32.10;99537.38;5101481;28;20027;-84
2023/06/08 11:35:20;;;;;;;1.80;0.77;;;;;;;28.81;33.42;99523.31;5106846;28;20023;-84
2023/06/08 11:37:52;;;;;;;1.63;1.00;;;;;;;29.09;33.37;99509.81;5111617;28;20082;-87